sensor_id;sensor_type;location;lat;lon;timestamp;pressure;altitude;pressure_sealevel;temperature;humidity
34034;BME280;63481;52.588;22.472;2023-06-19T00:00:31;100140.23;;;14.49;100.00
34034;BME280;63481;52.588;22.472;2023-06-19T00:01:23;100137.54;;;14.49;100.00
34034;BME280;63481;52.588;22.472;2023-06-19T00:01:55;100141.27;;;14.45;100.00
34034;BME280;63481;52.588;22.472;2023-06-19T00:02:28;100143.65;;;14.42;100.00
34034;BME280;63481;52.588;22.472;2023-06-19T00:03:00;100141.35;;;14.44;100.00
34034;BME280;63481;52.588;22.472;2023-06-19T00:03:32;100145.11;;;14.37;100.00
34034;BME280;63481;52.588;22.472;2023-06-19T00:04:04;100144.86;;;14.23;100.00
34034;BME280;63481;52.588;22.472;2023-06-19T00:04:37;100148.13;;;14.14;100.00
34034;BME280;63481;52.588;22.472;2023-06-19T00:05:09;100153.27;;;14.09;100.00
34034;BME280;63481;52.588;22.472;2023-06-19T00:05:42;100152.30;;;14.07;100.00
34034;BME280;63481;52.588;22.472;2023-06-19T00:06:14;100149.86;;;14.10;100.00
34034;BME280;63481;52.588;22.472;2023-06-19T00:06:46;100154.54;;;14.12;100.00
34034;BME280;63481;52.588;22.472;2023-06-19T00:07:20;100151.61;;;14.12;100.00
34034;BME280;63481;52.588;22.472;2023-06-19T00:07:54;100155.27;;;14.13;100.00
34034;BME280;63481;52.588;22.472;2023-06-19T00:08:26;100153.66;;;14.14;100.00
34034;BME280;63481;52.588;22.472;2023-06-19T00:08:58;100153.41;;;14.17;100.00
34034;BME280;63481;52.588;22.472;2023-06-19T00:09:32;100155.39;;;14.19;100.00
34034;BME280;63481;52.588;22.472;2023-06-19T00:10:05;100148.77;;;14.16;100.00
34034;BME280;63481;52.588;22.472;2023-06-19T00:10:37;100153.14;;;14.14;100.00
34034;BME280;63481;52.588;22.472;2023-06-19T00:11:10;100154.55;;;14.16;100.00
34034;BME280;63481;52.588;22.472;2023-06-19T00:11:42;100148.11;;;14.15;100.00
34034;BME280;63481;52.588;22.472;2023-06-19T00:12:14;100149.86;;;14.15;100.00
34034;BME280;63481;52.588;22.472;2023-06-19T00:12:46;100151.77;;;14.14;100.00
34034;BME280;63481;52.588;22.472;2023-06-19T00:13:19;100149.88;;;14.13;100.00
34034;BME280;63481;52.588;22.472;2023-06-19T00:13:52;100150.90;;;14.11;100.00
34034;BME280;63481;52.588;22.472;2023-06-19T00:14:24;100151.65;;;14.11;100.00
34034;BME280;63481;52.588;22.472;2023-06-19T00:14:56;100150.00;;;14.11;100.00
34034;BME280;63481;52.588;22.472;2023-06-19T00:15:28;100153.70;;;14.12;100.00
34034;BME280;63481;52.588;22.472;2023-06-19T00:16:01;100150.45;;;14.12;100.00
34034;BME280;63481;52.588;22.472;2023-06-19T00:16:33;100152.96;;;14.12;100.00
34034;BME280;63481;52.588;22.472;2023-06-19T00:17:05;100154.00;;;14.11;100.00
34034;BME280;63481;52.588;22.472;2023-06-19T00:17:39;100151.19;;;14.09;100.00
34034;BME280;63481;52.588;22.472;2023-06-19T00:18:13;100153.13;;;14.10;100.00
34034;BME280;63481;52.588;22.472;2023-06-19T00:18:46;100152.43;;;14.12;100.00
34034;BME280;63481;52.588;22.472;2023-06-19T00:19:18;100148.27;;;14.11;100.00
34034;BME280;63481;52.588;22.472;2023-06-19T00:19:50;100148.64;;;14.11;100.00
34034;BME280;63481;52.588;22.472;2023-06-19T00:20:23;100145.48;;;14.13;100.00
34034;BME280;63481;52.588;22.472;2023-06-19T00:20:55;100146.78;;;14.11;100.00
34034;BME280;63481;52.588;22.472;2023-06-19T00:21:29;100148.12;;;14.11;100.00
34034;BME280;63481;52.588;22.472;2023-06-19T00:22:03;100144.55;;;14.12;100.00
34034;BME280;63481;52.588;22.472;2023-06-19T00:22:35;100148.69;;;14.15;100.00
34034;BME280;63481;52.588;22.472;2023-06-19T00:23:07;100148.38;;;14.20;100.00
34034;BME280;63481;52.588;22.472;2023-06-19T00:23:43;100145.94;;;14.17;100.00
34034;BME280;63481;52.588;22.472;2023-06-19T00:24:19;100145.71;;;14.14;100.00
34034;BME280;63481;52.588;22.472;2023-06-19T00:24:51;100146.35;;;14.22;100.00
34034;BME280;63481;52.588;22.472;2023-06-19T00:25:23;100146.98;;;14.34;100.00
34034;BME280;63481;52.588;22.472;2023-06-19T00:25:56;100146.53;;;14.38;100.00
34034;BME280;63481;52.588;22.472;2023-06-19T00:26:28;100146.73;;;14.29;100.00
34034;BME280;63481;52.588;22.472;2023-06-19T00:27:00;100146.02;;;14.24;100.00
34034;BME280;63481;52.588;22.472;2023-06-19T00:27:34;100149.17;;;14.19;100.00
34034;BME280;63481;52.588;22.472;2023-06-19T00:28:06;100150.56;;;14.17;100.00
34034;BME280;63481;52.588;22.472;2023-06-19T00:28:43;100147.70;;;14.14;100.00
34034;BME280;63481;52.588;22.472;2023-06-19T00:29:17;100147.20;;;14.16;100.00
34034;BME280;63481;52.588;22.472;2023-06-19T00:29:51;100148.48;;;14.15;100.00
34034;BME280;63481;52.588;22.472;2023-06-19T00:30:24;100148.91;;;14.17;100.00
34034;BME280;63481;52.588;22.472;2023-06-19T00:30:58;100150.92;;;14.18;100.00
34034;BME280;63481;52.588;22.472;2023-06-19T00:31:30;100149.25;;;14.18;100.00
34034;BME280;63481;52.588;22.472;2023-06-19T00:32:02;100150.98;;;14.14;100.00
34034;BME280;63481;52.588;22.472;2023-06-19T00:32:35;100147.73;;;14.12;100.00
34034;BME280;63481;52.588;22.472;2023-06-19T00:33:18;100146.96;;;14.08;100.00
34034;BME280;63481;52.588;22.472;2023-06-19T00:33:50;100145.70;;;14.05;100.00
34034;BME280;63481;52.588;22.472;2023-06-19T00:34:23;100145.03;;;14.02;100.00
34034;BME280;63481;52.588;22.472;2023-06-19T00:34:56;100143.53;;;14.03;100.00
34034;BME280;63481;52.588;22.472;2023-06-19T00:35:31;100140.98;;;14.13;100.00
34034;BME280;63481;52.588;22.472;2023-06-19T00:36:08;100142.06;;;14.22;100.00
34034;BME280;63481;52.588;22.472;2023-06-19T00:36:46;100143.25;;;14.20;100.00
34034;BME280;63481;52.588;22.472;2023-06-19T00:37:19;100143.98;;;14.13;100.00
34034;BME280;63481;52.588;22.472;2023-06-19T00:37:51;100143.94;;;14.08;100.00
34034;BME280;63481;52.588;22.472;2023-06-19T00:38:23;100147.44;;;14.04;100.00
34034;BME280;63481;52.588;22.472;2023-06-19T00:38:58;100149.04;;;13.97;100.00
34034;BME280;63481;52.588;22.472;2023-06-19T00:39:31;100150.31;;;13.90;100.00
34034;BME280;63481;52.588;22.472;2023-06-19T00:40:03;100148.37;;;13.87;100.00
34034;BME280;63481;52.588;22.472;2023-06-19T00:40:36;100149.31;;;13.85;100.00
34034;BME280;63481;52.588;22.472;2023-06-19T00:41:08;100150.55;;;13.84;100.00
34034;BME280;63481;52.588;22.472;2023-06-19T00:41:42;100148.75;;;13.81;100.00
34034;BME280;63481;52.588;22.472;2023-06-19T00:42:15;100147.57;;;13.75;100.00
34034;BME280;63481;52.588;22.472;2023-06-19T00:42:47;100146.21;;;13.80;100.00
34034;BME280;63481;52.588;22.472;2023-06-19T00:43:19;100147.88;;;13.89;100.00
34034;BME280;63481;52.588;22.472;2023-06-19T00:43:52;100143.86;;;13.91;100.00
34034;BME280;63481;52.588;22.472;2023-06-19T00:44:26;100145.71;;;13.88;100.00
34034;BME280;63481;52.588;22.472;2023-06-19T00:44:59;100144.45;;;13.85;100.00
34034;BME280;63481;52.588;22.472;2023-06-19T00:45:31;100143.48;;;13.81;100.00
34034;BME280;63481;52.588;22.472;2023-06-19T00:46:06;100147.74;;;13.77;100.00
34034;BME280;63481;52.588;22.472;2023-06-19T00:46:40;100148.50;;;13.71;100.00
34034;BME280;63481;52.588;22.472;2023-06-19T00:47:15;100149.61;;;13.70;100.00
34034;BME280;63481;52.588;22.472;2023-06-19T00:47:47;100149.96;;;13.72;100.00
34034;BME280;63481;52.588;22.472;2023-06-19T00:48:19;100147.45;;;13.70;100.00
34034;BME280;63481;52.588;22.472;2023-06-19T00:48:52;100148.52;;;13.67;100.00
34034;BME280;63481;52.588;22.472;2023-06-19T00:49:25;100149.64;;;13.63;100.00
34034;BME280;63481;52.588;22.472;2023-06-19T00:49:58;100151.23;;;13.60;100.00
34034;BME280;63481;52.588;22.472;2023-06-19T00:50:30;100149.66;;;13.58;100.00
34034;BME280;63481;52.588;22.472;2023-06-19T00:51:03;100151.41;;;13.60;100.00
34034;BME280;63481;52.588;22.472;2023-06-19T00:51:35;100154.50;;;13.61;100.00
34034;BME280;63481;52.588;22.472;2023-06-19T00:52:07;100154.46;;;13.63;100.00
34034;BME280;63481;52.588;22.472;2023-06-19T00:52:41;100153.41;;;13.64;100.00
34034;BME280;63481;52.588;22.472;2023-06-19T00:53:14;100153.42;;;13.64;100.00
34034;BME280;63481;52.588;22.472;2023-06-19T00:53:46;100154.52;;;13.65;100.00
34034;BME280;63481;52.588;22.472;2023-06-19T00:54:19;100155.39;;;13.66;100.00
34034;BME280;63481;52.588;22.472;2023-06-19T00:54:52;100154.91;;;13.66;100.00
34034;BME280;63481;52.588;22.472;2023-06-19T00:55:29;100154.95;;;13.69;100.00
34034;BME280;63481;52.588;22.472;2023-06-19T00:56:05;100155.01;;;13.72;100.00
34034;BME280;63481;52.588;22.472;2023-06-19T00:56:38;100154.11;;;13.72;100.00
34034;BME280;63481;52.588;22.472;2023-06-19T00:57:12;100153.34;;;13.72;100.00
34034;BME280;63481;52.588;22.472;2023-06-19T00:57:46;100156.84;;;13.70;100.00
34034;BME280;63481;52.588;22.472;2023-06-19T00:58:21;100154.96;;;13.68;100.00
34034;BME280;63481;52.588;22.472;2023-06-19T00:58:53;100155.35;;;13.67;100.00
34034;BME280;63481;52.588;22.472;2023-06-19T00:59:26;100156.29;;;13.68;100.00
34034;BME280;63481;52.588;22.472;2023-06-19T01:00:01;100155.63;;;13.67;100.00
34034;BME280;63481;52.588;22.472;2023-06-19T01:00:36;100153.27;;;13.67;100.00
34034;BME280;63481;52.588;22.472;2023-06-19T01:01:09;100154.29;;;13.67;100.00
34034;BME280;63481;52.588;22.472;2023-06-19T01:01:41;100154.40;;;13.65;100.00
34034;BME280;63481;52.588;22.472;2023-06-19T01:02:14;100154.59;;;13.66;100.00
34034;BME280;63481;52.588;22.472;2023-06-19T01:02:47;100153.86;;;13.67;100.00
34034;BME280;63481;52.588;22.472;2023-06-19T01:03:19;100153.11;;;13.67;100.00
34034;BME280;63481;52.588;22.472;2023-06-19T01:03:57;100151.02;;;13.68;100.00
34034;BME280;63481;52.588;22.472;2023-06-19T01:04:29;100151.05;;;13.68;100.00
34034;BME280;63481;52.588;22.472;2023-06-19T01:05:02;100152.09;;;13.68;100.00
34034;BME280;63481;52.588;22.472;2023-06-19T01:05:35;100149.65;;;13.68;100.00
34034;BME280;63481;52.588;22.472;2023-06-19T01:06:17;100151.40;;;13.69;100.00
34034;BME280;63481;52.588;22.472;2023-06-19T01:06:56;100149.64;;;13.71;100.00
34034;BME280;63481;52.588;22.472;2023-06-19T01:09:39;100150.58;;;13.72;100.00
34034;BME280;63481;52.588;22.472;2023-06-19T01:10:18;100150.05;;;13.69;100.00
34034;BME280;63481;52.588;22.472;2023-06-19T01:10:55;100147.76;;;13.65;100.00
34034;BME280;63481;52.588;22.472;2023-06-19T01:11:33;100147.34;;;13.62;100.00
34034;BME280;63481;52.588;22.472;2023-06-19T01:12:11;100150.29;;;13.61;100.00
34034;BME280;63481;52.588;22.472;2023-06-19T01:13:06;100149.22;;;13.64;100.00
34034;BME280;63481;52.588;22.472;2023-06-19T01:14:07;100147.61;;;13.64;100.00
34034;BME280;63481;52.588;22.472;2023-06-19T01:14:50;100146.92;;;13.60;100.00
34034;BME280;63481;52.588;22.472;2023-06-19T01:15:26;100146.23;;;13.56;100.00
34034;BME280;63481;52.588;22.472;2023-06-19T01:15:59;100146.21;;;13.55;100.00
34034;BME280;63481;52.588;22.472;2023-06-19T01:16:34;100147.15;;;13.53;100.00
34034;BME280;63481;52.588;22.472;2023-06-19T01:17:07;100144.77;;;13.54;100.00
34034;BME280;63481;52.588;22.472;2023-06-19T01:17:40;100140.85;;;13.54;100.00
34034;BME280;63481;52.588;22.472;2023-06-19T01:18:13;100142.14;;;13.54;100.00
34034;BME280;63481;52.588;22.472;2023-06-19T01:18:48;100140.42;;;13.51;100.00
34034;BME280;63481;52.588;22.472;2023-06-19T01:19:21;100140.81;;;13.54;100.00
34034;BME280;63481;52.588;22.472;2023-06-19T01:19:55;100141.02;;;13.58;100.00
34034;BME280;63481;52.588;22.472;2023-06-19T01:20:29;100142.70;;;13.62;100.00
34034;BME280;63481;52.588;22.472;2023-06-19T01:21:12;100139.16;;;13.66;100.00
34034;BME280;63481;52.588;22.472;2023-06-19T01:21:45;100141.98;;;13.68;100.00
34034;BME280;63481;52.588;22.472;2023-06-19T01:22:28;100140.38;;;13.68;100.00
34034;BME280;63481;52.588;22.472;2023-06-19T01:23:08;100140.19;;;13.67;100.00
34034;BME280;63481;52.588;22.472;2023-06-19T01:23:41;100140.69;;;13.63;100.00
34034;BME280;63481;52.588;22.472;2023-06-19T01:24:14;100141.30;;;13.61;100.00
34034;BME280;63481;52.588;22.472;2023-06-19T01:24:46;100140.12;;;13.58;100.00
34034;BME280;63481;52.588;22.472;2023-06-19T01:25:18;100142.86;;;13.56;100.00
34034;BME280;63481;52.588;22.472;2023-06-19T01:25:51;100141.02;;;13.54;100.00
34034;BME280;63481;52.588;22.472;2023-06-19T01:26:23;100140.16;;;13.54;100.00
34034;BME280;63481;52.588;22.472;2023-06-19T01:26:59;100142.98;;;13.53;100.00
34034;BME280;63481;52.588;22.472;2023-06-19T01:27:32;100140.55;;;13.53;100.00
34034;BME280;63481;52.588;22.472;2023-06-19T01:28:08;100143.21;;;13.51;100.00
34034;BME280;63481;52.588;22.472;2023-06-19T01:28:42;100144.83;;;13.51;100.00
34034;BME280;63481;52.588;22.472;2023-06-19T01:29:16;100144.48;;;13.51;100.00
34034;BME280;63481;52.588;22.472;2023-06-19T01:29:51;100144.86;;;13.51;100.00
34034;BME280;63481;52.588;22.472;2023-06-19T01:30:26;100148.97;;;13.52;100.00
34034;BME280;63481;52.588;22.472;2023-06-19T01:31:00;100147.37;;;13.52;100.00
34034;BME280;63481;52.588;22.472;2023-06-19T01:31:46;100147.92;;;13.53;100.00
34034;BME280;63481;52.588;22.472;2023-06-19T01:32:32;100149.47;;;13.53;100.00
34034;BME280;63481;52.588;22.472;2023-06-19T01:33:15;100154.34;;;13.52;100.00
34034;BME280;63481;52.588;22.472;2023-06-19T01:33:52;100150.73;;;13.52;100.00
34034;BME280;63481;52.588;22.472;2023-06-19T01:34:25;100155.89;;;13.53;100.00
34034;BME280;63481;52.588;22.472;2023-06-19T01:34:59;100158.14;;;13.51;100.00
34034;BME280;63481;52.588;22.472;2023-06-19T01:35:36;100159.77;;;13.52;100.00
34034;BME280;63481;52.588;22.472;2023-06-19T01:36:09;100160.15;;;13.52;100.00
34034;BME280;63481;52.588;22.472;2023-06-19T01:36:42;100161.41;;;13.50;100.00
34034;BME280;63481;52.588;22.472;2023-06-19T01:37:18;100162.63;;;13.48;100.00
34034;BME280;63481;52.588;22.472;2023-06-19T01:37:52;100162.85;;;13.50;100.00
34034;BME280;63481;52.588;22.472;2023-06-19T01:38:25;100162.20;;;13.50;100.00
34034;BME280;63481;52.588;22.472;2023-06-19T01:39:00;100165.25;;;13.52;100.00
34034;BME280;63481;52.588;22.472;2023-06-19T01:39:32;100166.37;;;13.52;100.00
34034;BME280;63481;52.588;22.472;2023-06-19T01:40:09;100162.81;;;13.51;100.00
34034;BME280;63481;52.588;22.472;2023-06-19T01:40:43;100166.88;;;13.51;100.00
34034;BME280;63481;52.588;22.472;2023-06-19T01:41:16;100161.16;;;13.51;100.00
34034;BME280;63481;52.588;22.472;2023-06-19T01:41:50;100162.28;;;13.53;100.00
34034;BME280;63481;52.588;22.472;2023-06-19T01:42:24;100161.08;;;13.52;100.00
34034;BME280;63481;52.588;22.472;2023-06-19T01:42:58;100163.27;;;13.56;100.00
34034;BME280;63481;52.588;22.472;2023-06-19T01:43:33;100160.77;;;13.54;100.00
34034;BME280;63481;52.588;22.472;2023-06-19T01:44:05;100160.58;;;13.54;100.00
34034;BME280;63481;52.588;22.472;2023-06-19T01:44:38;100161.77;;;13.54;100.00
34034;BME280;63481;52.588;22.472;2023-06-19T01:45:10;100162.39;;;13.55;100.00
34034;BME280;63481;52.588;22.472;2023-06-19T01:45:43;100162.61;;;13.53;100.00
34034;BME280;63481;52.588;22.472;2023-06-19T01:46:15;100166.73;;;13.56;100.00
34034;BME280;63481;52.588;22.472;2023-06-19T01:46:49;100167.44;;;13.58;100.00
34034;BME280;63481;52.588;22.472;2023-06-19T01:47:22;100167.73;;;13.58;100.00
34034;BME280;63481;52.588;22.472;2023-06-19T01:47:54;100167.48;;;13.57;100.00
34034;BME280;63481;52.588;22.472;2023-06-19T01:48:27;100169.48;;;13.57;100.00
34034;BME280;63481;52.588;22.472;2023-06-19T01:48:59;100168.98;;;13.59;100.00
34034;BME280;63481;52.588;22.472;2023-06-19T01:49:32;100171.52;;;13.62;100.00
34034;BME280;63481;52.588;22.472;2023-06-19T01:50:04;100169.84;;;13.61;100.00
34034;BME280;63481;52.588;22.472;2023-06-19T01:50:38;100172.64;;;13.64;100.00
34034;BME280;63481;52.588;22.472;2023-06-19T01:51:11;100173.06;;;13.68;100.00
34034;BME280;63481;52.588;22.472;2023-06-19T01:51:44;100173.70;;;13.63;100.00
34034;BME280;63481;52.588;22.472;2023-06-19T01:52:17;100173.84;;;13.63;100.00
34034;BME280;63481;52.588;22.472;2023-06-19T01:52:50;100173.50;;;13.61;100.00
34034;BME280;63481;52.588;22.472;2023-06-19T01:53:23;100177.06;;;13.59;100.00
34034;BME280;63481;52.588;22.472;2023-06-19T01:53:56;100177.52;;;13.60;100.00
34034;BME280;63481;52.588;22.472;2023-06-19T01:54:28;100175.59;;;13.62;100.00
34034;BME280;63481;52.588;22.472;2023-06-19T01:55:00;100176.00;;;13.65;100.00
34034;BME280;63481;52.588;22.472;2023-06-19T01:55:32;100178.59;;;13.65;100.00
34034;BME280;63481;52.588;22.472;2023-06-19T01:56:05;100175.88;;;13.68;100.00
34034;BME280;63481;52.588;22.472;2023-06-19T01:56:37;100172.98;;;13.72;100.00
34034;BME280;63481;52.588;22.472;2023-06-19T01:57:10;100173.07;;;13.74;100.00
34034;BME280;63481;52.588;22.472;2023-06-19T01:57:42;100171.20;;;13.76;100.00
34034;BME280;63481;52.588;22.472;2023-06-19T01:58:15;100169.63;;;13.78;100.00
34034;BME280;63481;52.588;22.472;2023-06-19T01:58:47;100170.50;;;13.78;100.00
34034;BME280;63481;52.588;22.472;2023-06-19T01:59:19;100169.19;;;13.80;100.00
34034;BME280;63481;52.588;22.472;2023-06-19T01:59:52;100170.17;;;13.80;100.00
34034;BME280;63481;52.588;22.472;2023-06-19T02:00:24;100168.49;;;13.82;100.00
34034;BME280;63481;52.588;22.472;2023-06-19T02:00:56;100169.96;;;13.81;100.00
34034;BME280;63481;52.588;22.472;2023-06-19T02:01:28;100170.13;;;13.80;100.00
34034;BME280;63481;52.588;22.472;2023-06-19T02:02:01;100168.28;;;13.80;100.00
34034;BME280;63481;52.588;22.472;2023-06-19T02:02:38;100168.50;;;13.79;100.00
34034;BME280;63481;52.588;22.472;2023-06-19T02:03:11;100169.38;;;13.78;100.00
34034;BME280;63481;52.588;22.472;2023-06-19T02:03:43;100171.67;;;13.78;100.00
34034;BME280;63481;52.588;22.472;2023-06-19T02:04:15;100169.45;;;13.79;100.00
34034;BME280;63481;52.588;22.472;2023-06-19T02:04:47;100165.17;;;13.78;100.00
34034;BME280;63481;52.588;22.472;2023-06-19T02:05:19;100168.34;;;13.76;100.00
34034;BME280;63481;52.588;22.472;2023-06-19T02:05:51;100170.23;;;13.74;100.00
34034;BME280;63481;52.588;22.472;2023-06-19T02:06:25;100167.58;;;13.77;100.00
34034;BME280;63481;52.588;22.472;2023-06-19T02:06:59;100163.77;;;13.81;100.00
34034;BME280;63481;52.588;22.472;2023-06-19T02:07:31;100166.69;;;13.84;100.00
34034;BME280;63481;52.588;22.472;2023-06-19T02:08:03;100172.03;;;13.86;100.00
34034;BME280;63481;52.588;22.472;2023-06-19T02:08:39;100165.17;;;13.84;100.00
34034;BME280;63481;52.588;22.472;2023-06-19T02:09:15;100169.41;;;13.84;100.00
34034;BME280;63481;52.588;22.472;2023-06-19T02:09:47;100171.20;;;13.86;100.00
34034;BME280;63481;52.588;22.472;2023-06-19T02:10:21;100172.57;;;13.88;100.00
34034;BME280;63481;52.588;22.472;2023-06-19T02:10:53;100172.25;;;13.88;100.00
34034;BME280;63481;52.588;22.472;2023-06-19T02:11:25;100174.61;;;13.86;100.00
34034;BME280;63481;52.588;22.472;2023-06-19T02:12:00;100175.92;;;13.85;100.00
34034;BME280;63481;52.588;22.472;2023-06-19T02:12:32;100174.33;;;13.83;100.00
34034;BME280;63481;52.588;22.472;2023-06-19T02:13:05;100178.11;;;13.84;100.00
34034;BME280;63481;52.588;22.472;2023-06-19T02:13:37;100178.73;;;13.85;100.00
34034;BME280;63481;52.588;22.472;2023-06-19T02:14:09;100181.32;;;13.84;100.00
34034;BME280;63481;52.588;22.472;2023-06-19T02:14:43;100182.55;;;13.82;100.00
34034;BME280;63481;52.588;22.472;2023-06-19T02:15:15;100179.15;;;13.81;100.00
34034;BME280;63481;52.588;22.472;2023-06-19T02:15:47;100182.84;;;13.77;100.00
34034;BME280;63481;52.588;22.472;2023-06-19T02:16:20;100182.89;;;13.76;100.00
34034;BME280;63481;52.588;22.472;2023-06-19T02:16:57;100181.42;;;13.76;100.00
34034;BME280;63481;52.588;22.472;2023-06-19T02:17:29;100180.81;;;13.75;100.00
34034;BME280;63481;52.588;22.472;2023-06-19T02:18:02;100180.93;;;13.75;100.00
34034;BME280;63481;52.588;22.472;2023-06-19T02:18:35;100181.88;;;13.77;100.00
34034;BME280;63481;52.588;22.472;2023-06-19T02:19:07;100181.63;;;13.81;100.00
34034;BME280;63481;52.588;22.472;2023-06-19T02:19:42;100181.62;;;13.81;100.00
34034;BME280;63481;52.588;22.472;2023-06-19T02:20:15;100180.62;;;13.80;100.00
34034;BME280;63481;52.588;22.472;2023-06-19T02:20:47;100181.25;;;13.81;100.00
34034;BME280;63481;52.588;22.472;2023-06-19T02:21:21;100179.46;;;13.85;100.00
34034;BME280;63481;52.588;22.472;2023-06-19T02:21:53;100183.15;;;13.86;100.00
34034;BME280;63481;52.588;22.472;2023-06-19T02:22:25;100180.80;;;13.89;100.00
34034;BME280;63481;52.588;22.472;2023-06-19T02:22:59;100182.45;;;13.94;100.00
34034;BME280;63481;52.588;22.472;2023-06-19T02:23:34;100180.50;;;13.93;100.00
34034;BME280;63481;52.588;22.472;2023-06-19T02:24:06;100184.13;;;13.91;100.00
34034;BME280;63481;52.588;22.472;2023-06-19T02:24:39;100184.14;;;13.87;100.00
34034;BME280;63481;52.588;22.472;2023-06-19T02:25:11;100183.70;;;13.89;100.00
34034;BME280;63481;52.588;22.472;2023-06-19T02:25:43;100184.90;;;13.94;100.00
34034;BME280;63481;52.588;22.472;2023-06-19T02:26:15;100182.23;;;13.90;100.00
34034;BME280;63481;52.588;22.472;2023-06-19T02:26:48;100186.55;;;13.85;100.00
34034;BME280;63481;52.588;22.472;2023-06-19T02:27:20;100186.30;;;13.82;100.00
34034;BME280;63481;52.588;22.472;2023-06-19T02:27:52;100186.74;;;13.78;100.00
34034;BME280;63481;52.588;22.472;2023-06-19T02:28:25;100182.87;;;13.78;100.00
34034;BME280;63481;52.588;22.472;2023-06-19T02:28:57;100185.70;;;13.73;100.00
34034;BME280;63481;52.588;22.472;2023-06-19T02:29:29;100185.93;;;13.71;100.00
34034;BME280;63481;52.588;22.472;2023-06-19T02:30:02;100187.34;;;13.68;100.00
34034;BME280;63481;52.588;22.472;2023-06-19T02:30:36;100187.66;;;13.60;100.00
34034;BME280;63481;52.588;22.472;2023-06-19T02:31:08;100184.15;;;13.57;100.00
34034;BME280;63481;52.588;22.472;2023-06-19T02:31:40;100185.89;;;13.59;100.00
34034;BME280;63481;52.588;22.472;2023-06-19T02:32:14;100187.92;;;13.62;100.00
34034;BME280;63481;52.588;22.472;2023-06-19T02:32:46;100184.06;;;13.60;100.00
34034;BME280;63481;52.588;22.472;2023-06-19T02:33:19;100186.30;;;13.59;100.00
34034;BME280;63481;52.588;22.472;2023-06-19T02:33:51;100184.78;;;13.57;100.00
34034;BME280;63481;52.588;22.472;2023-06-19T02:34:25;100187.97;;;13.56;100.00
34034;BME280;63481;52.588;22.472;2023-06-19T02:34:57;100187.55;;;13.52;100.00
34034;BME280;63481;52.588;22.472;2023-06-19T02:35:31;100186.77;;;13.53;100.00
34034;BME280;63481;52.588;22.472;2023-06-19T02:36:03;100184.38;;;13.52;100.00
34034;BME280;63481;52.588;22.472;2023-06-19T02:36:36;100186.19;;;13.50;100.00
34034;BME280;63481;52.588;22.472;2023-06-19T02:37:08;100186.04;;;13.46;100.00
34034;BME280;63481;52.588;22.472;2023-06-19T02:37:42;100184.67;;;13.45;100.00
34034;BME280;63481;52.588;22.472;2023-06-19T02:38:15;100186.91;;;13.48;100.00
34034;BME280;63481;52.588;22.472;2023-06-19T02:38:48;100187.21;;;13.50;100.00
34034;BME280;63481;52.588;22.472;2023-06-19T02:39:20;100185.91;;;13.49;100.00
34034;BME280;63481;52.588;22.472;2023-06-19T02:39:54;100180.91;;;13.50;100.00
34034;BME280;63481;52.588;22.472;2023-06-19T02:40:26;100183.40;;;13.51;100.00
34034;BME280;63481;52.588;22.472;2023-06-19T02:40:59;100180.77;;;13.57;100.00
34034;BME280;63481;52.588;22.472;2023-06-19T02:41:33;100181.27;;;13.66;100.00
34034;BME280;63481;52.588;22.472;2023-06-19T02:42:05;100176.82;;;13.68;100.00
34034;BME280;63481;52.588;22.472;2023-06-19T02:42:38;100178.02;;;13.69;100.00
34034;BME280;63481;52.588;22.472;2023-06-19T02:43:10;100179.20;;;13.70;100.00
34034;BME280;63481;52.588;22.472;2023-06-19T02:43:43;100178.36;;;13.67;100.00
34034;BME280;63481;52.588;22.472;2023-06-19T02:44:16;100180.38;;;13.64;100.00
34034;BME280;63481;52.588;22.472;2023-06-19T02:44:49;100180.02;;;13.61;100.00
34034;BME280;63481;52.588;22.472;2023-06-19T02:45:21;100180.60;;;13.59;100.00
34034;BME280;63481;52.588;22.472;2023-06-19T02:45:54;100183.48;;;13.58;100.00
34034;BME280;63481;52.588;22.472;2023-06-19T02:46:26;100181.29;;;13.58;100.00
34034;BME280;63481;52.588;22.472;2023-06-19T02:46:58;100180.52;;;13.60;100.00
34034;BME280;63481;52.588;22.472;2023-06-19T02:47:31;100183.40;;;13.63;100.00
34034;BME280;63481;52.588;22.472;2023-06-19T02:48:04;100180.85;;;13.62;100.00
34034;BME280;63481;52.588;22.472;2023-06-19T02:48:38;100179.41;;;13.68;100.00
34034;BME280;63481;52.588;22.472;2023-06-19T02:49:10;100179.27;;;13.64;100.00
34034;BME280;63481;52.588;22.472;2023-06-19T02:49:43;100179.38;;;13.65;100.00
34034;BME280;63481;52.588;22.472;2023-06-19T02:50:15;100180.41;;;13.63;100.00
34034;BME280;63481;52.588;22.472;2023-06-19T02:50:47;100180.56;;;13.63;100.00
34034;BME280;63481;52.588;22.472;2023-06-19T02:51:19;100176.96;;;13.61;100.00
34034;BME280;63481;52.588;22.472;2023-06-19T02:51:51;100181.79;;;13.63;100.00
34034;BME280;63481;52.588;22.472;2023-06-19T02:52:24;100176.07;;;13.63;100.00
34034;BME280;63481;52.588;22.472;2023-06-19T02:52:56;100179.40;;;13.70;100.00
34034;BME280;63481;52.588;22.472;2023-06-19T02:53:31;100176.60;;;13.72;100.00
34034;BME280;63481;52.588;22.472;2023-06-19T02:54:03;100177.83;;;13.69;100.00